Terminal Aerodrome Forecast
Issued by NWS

Home | Current Version | Previous Version | Graphics & Text | Print | Product List | Glossary On
Versions: 1 2 3 4 5 6 7 8 9 10 11 12 13 14 15 16
628
FTUS43 KMPX 211025 AAA
TAFRNH
TAF AMD
KRNH 211025Z 2110/2206 17013KT P6SM OVC070
     FM211200 16012G18KT P6SM -SHRA VCTS OVC040CB
      TEMPO 2113/2115 4SM -TSRA
     FM211600 17013G22KT P6SM OVC020
     FM212200 17011KT 6SM -RA OVC015
     FM220200 23007KT 5SM SHRA OVC020=

USA.gov is the U.S. government's official web portal to all federal, state and local government web resources and services.